Time;durP1;ratioP1;P1;durP2;ratioP2;P2;SDS_P1;SDS_P2;PMS_P1;PMS_P2;Temp;Humidity;BMP_temperature;BMP_pressure;BME280_temperature;BME280_humidity;BME280_pressure;Samples;Min_cycle;Max_cycle;Signal;HPM_P1;HPM_P2
2022/03/29 00:02:30;;;;;;;21.83;10.52;;;;;;;6.44;100.00;101415.28;6277017;28;20186;-75
2022/03/29 00:05:31;;;;;;;20.13;9.15;;;;;;;6.46;100.00;101408.28;6291269;28;20059;-75
2022/03/29 00:08:32;;;;;;;24.58;9.80;;;;;;;6.54;100.00;101410.66;6297480;28;20423;-75
2022/03/29 00:11:35;;;;;;;25.80;9.75;;;;;;;6.55;100.00;101397.59;6297146;28;20053;-75
2022/03/29 00:14:37;;;;;;;26.42;10.85;;;;;;;6.52;100.00;101402.88;6297848;28;20048;-75
2022/03/29 00:17:39;;;;;;;18.13;7.97;;;;;;;6.41;100.00;101404.06;6297448;28;20051;-75
2022/03/29 00:20:40;;;;;;;23.73;9.45;;;;;;;6.28;100.00;101399.16;6296667;28;20052;-75
2022/03/29 00:23:41;;;;;;;23.20;10.30;;;;;;;6.21;100.00;101386.28;6288645;28;20045;-75
2022/03/29 00:26:44;;;;;;;27.30;10.68;;;;;;;6.24;100.00;101391.44;6297430;28;20488;-75
2022/03/29 00:29:45;;;;;;;20.50;8.98;;;;;;;6.22;100.00;101382.78;6296750;28;20052;-75
2022/03/29 00:32:47;;;;;;;19.15;8.35;;;;;;;6.19;100.00;101381.13;6296774;28;20143;-74
2022/03/29 00:35:49;;;;;;;24.30;8.77;;;;;;;6.17;100.00;101377.66;6296864;28;20088;-74
2022/03/29 00:38:50;;;;;;;19.58;8.55;;;;;;;6.20;100.00;101381.97;6297097;28;20045;-74
2022/03/29 00:41:53;;;;;;;24.58;8.75;;;;;;;6.19;100.00;101377.66;6296123;28;20055;-75
2022/03/29 00:44:56;;;;;;;23.80;8.82;;;;;;;6.22;100.00;101381.06;6297033;28;20519;-75
2022/03/29 00:47:57;;;;;;;28.33;9.23;;;;;;;6.23;100.00;101374.06;6296629;28;20087;-75
2022/03/29 00:50:59;;;;;;;22.58;10.15;;;;;;;6.28;100.00;101375.66;6296344;28;20496;-75
2022/03/29 00:54:00;;;;;;;25.58;9.35;;;;;;;6.23;100.00;101369.72;6296779;28;20055;-75
2022/03/29 00:57:05;;;;;;;29.80;10.60;;;;;;;6.18;100.00;101373.34;6296772;28;20044;-75
2022/03/29 01:00:07;;;;;;;34.15;11.98;;;;;;;6.17;100.00;101366.38;6295747;28;20059;-75
2022/03/29 01:03:09;;;;;;;29.65;12.02;;;;;;;6.10;100.00;101360.47;6295958;28;20052;-75
2022/03/29 01:06:10;;;;;;;33.22;12.32;;;;;;;6.09;100.00;101358.75;6296605;28;20045;-75
2022/03/29 01:09:12;;;;;;;39.58;11.90;;;;;;;6.10;100.00;101360.47;6296283;28;20522;-75
2022/03/29 01:12:15;;;;;;;29.13;12.35;;;;;;;6.10;100.00;101358.72;6295854;28;20048;-74
2022/03/29 01:15:18;;;;;;;23.48;10.30;;;;;;;6.05;100.00;101351.91;6296398;28;20059;-75
2022/03/29 01:18:20;;;;;;;26.08;10.57;;;;;;;6.04;100.00;101350.16;6296361;28;20045;-74
2022/03/29 01:21:25;;;;;;;27.70;10.10;;;;;;;6.06;100.00;101349.25;6295586;28;20553;-75
2022/03/29 01:24:29;;;;;;;27.30;10.48;;;;;;;6.16;100.00;101352.47;6296380;28;20051;-75
2022/03/29 01:27:31;;;;;;;31.75;11.63;;;;;;;6.13;100.00;101343.88;6296176;28;20045;-74
2022/03/29 01:30:34;;;;;;;34.92;11.10;;;;;;;6.19;100.00;101346.34;6295567;28;20135;-75
2022/03/29 01:33:35;;;;;;;29.48;10.63;;;;;;;6.22;100.00;101346.25;6295975;28;20423;-75
2022/03/29 01:36:37;;;;;;;29.60;11.95;;;;;;;6.14;100.00;101343.00;6288087;28;20040;-75
2022/03/29 01:39:39;;;;;;;25.77;11.00;;;;;;;6.03;100.00;101341.50;6281336;28;20052;-75
2022/03/29 01:42:42;;;;;;;25.25;9.90;;;;;;;6.14;100.00;101335.16;6284800;28;20438;-75
2022/03/29 01:45:44;;;;;;;31.63;11.48;;;;;;;6.04;100.00;101332.78;6287579;28;20135;-75
2022/03/29 01:48:45;;;;;;;23.73;9.60;;;;;;;5.99;100.00;101339.00;6295863;28;20048;-75
2022/03/29 01:51:47;;;;;;;30.45;10.07;;;;;;;5.95;100.00;101327.81;6284986;28;20049;-75
2022/03/29 01:54:50;;;;;;;28.65;11.15;;;;;;;5.88;100.00;101327.94;6291401;28;20115;-75
2022/03/29 01:57:53;;;;;;;39.58;12.68;;;;;;;5.96;100.00;101326.03;6295802;28;20055;-75
2022/03/29 02:00:55;;;;;;;36.50;13.85;;;;;;;5.85;100.00;101321.03;6295212;28;20454;-75
2022/03/29 02:03:56;;;;;;;34.63;12.23;;;;;;;5.79;100.00;101318.59;6280093;28;20040;-75
2022/03/29 02:07:00;;;;;;;31.35;11.02;;;;;;;5.85;100.00;101318.44;6271130;28;20049;-75
2022/03/29 02:10:03;;;;;;;24.20;8.57;;;;;;;5.89;100.00;101320.06;6272192;28;20041;-75
2022/03/29 02:13:04;;;;;;;18.88;8.70;;;;;;;5.78;100.00;101317.75;6275073;28;20115;-75
2022/03/29 02:16:06;;;;;;;20.60;7.18;;;;;;;5.82;100.00;101322.00;6275361;28;20056;-75
2022/03/29 02:19:07;;;;;;;24.58;8.70;;;;;;;5.89;100.00;101314.84;6275290;28;20516;-75
2022/03/29 02:22:08;;;;;;;19.00;7.05;;;;;;;5.77;100.00;101304.75;6274693;28;20056;-75
2022/03/29 02:25:12;;;;;;;14.85;7.70;;;;;;;5.80;100.00;101313.34;6275531;28;20078;-75
2022/03/29 02:28:14;;;;;;;19.33;7.32;;;;;;;5.82;100.00;101308.94;6275034;28;20049;-75
2022/03/29 02:31:15;;;;;;;19.40;7.72;;;;;;;5.91;100.00;101309.63;6290399;28;20044;-75
2022/03/29 02:34:16;;;;;;;26.02;7.93;;;;;;;5.88;100.00;101312.31;6300066;28;20059;-75
2022/03/29 02:37:18;;;;;;;10.82;6.05;;;;;;;5.72;100.00;101311.81;6299984;28;20045;-75
2022/03/29 02:40:20;;;;;;;14.43;7.03;;;;;;;5.79;100.00;101310.78;6299137;28;20049;-75
2022/03/29 02:43:22;;;;;;;21.23;6.72;;;;;;;5.75;100.00;101298.69;6299847;28;20060;-75
2022/03/29 02:46:23;;;;;;;13.98;6.57;;;;;;;5.76;100.00;101306.47;6299906;28;20044;-75
2022/03/29 02:49:25;;;;;;;14.60;6.00;;;;;;;5.77;100.00;101297.78;6299361;28;20056;-75
2022/03/29 02:52:26;;;;;;;15.65;6.93;;;;;;;5.78;100.00;101298.63;6299074;28;20050;-75
2022/03/29 02:55:56;;;;;;;18.13;6.72;;;;;;;5.75;100.00;101288.28;6299364;28;20051;-75
2022/03/29 02:58:58;;;;;;;23.55;6.82;;;;;;;5.81;100.00;101289.00;6299065;28;20040;-75
2022/03/29 03:01:59;;;;;;;18.60;7.10;;;;;;;5.82;100.00;101285.47;6298932;28;20049;-75
2022/03/29 03:05:01;;;;;;;17.20;6.15;;;;;;;5.76;100.00;101284.75;6299616;28;20048;-75
2022/03/29 03:08:02;;;;;;;20.58;8.20;;;;;;;5.75;100.00;101283.06;6299085;28;20052;-75
2022/03/29 03:11:06;;;;;;;23.77;8.13;;;;;;;5.72;100.00;101284.00;6298516;28;20056;-75
2022/03/29 03:14:07;;;;;;;19.88;7.63;;;;;;;5.74;100.00;101276.13;6299000;28;20139;-75
2022/03/29 03:17:08;;;;;;;20.90;7.90;;;;;;;5.76;100.00;101279.53;6298829;28;20045;-75
2022/03/29 03:20:12;;;;;;;22.90;8.65;;;;;;;5.77;100.00;101273.47;6296969;28;20049;-75
2022/03/29 03:23:14;;;;;;;18.27;6.80;;;;;;;5.75;100.00;101268.25;6272686;28;20048;-75
2022/03/29 03:26:16;;;;;;;18.70;6.68;;;;;;;5.72;100.00;101267.47;6273582;28;20049;-74
2022/03/29 03:29:18;;;;;;;20.17;7.65;;;;;;;5.72;100.00;101259.66;6274088;28;20056;-75
2022/03/29 03:32:19;;;;;;;20.88;8.88;;;;;;;5.71;100.00;101263.16;6272915;28;20049;-75
2022/03/29 03:35:21;;;;;;;23.25;8.02;;;;;;;5.67;100.00;101257.16;6271415;28;20415;-75
2022/03/29 03:38:22;;;;;;;21.65;9.20;;;;;;;5.65;100.00;101264.19;6282509;28;20627;-75
2022/03/29 03:41:25;;;;;;;23.65;8.93;;;;;;;5.66;100.00;101263.28;6286999;28;20127;-75
2022/03/29 03:44:27;;;;;;;22.83;8.30;;;;;;;5.66;100.00;101258.06;6290633;28;20063;-75
2022/03/29 03:47:28;;;;;;;23.05;8.57;;;;;;;5.64;100.00;101251.19;6273402;28;20053;-75
2022/03/29 03:50:30;;;;;;;16.98;7.05;;;;;;;5.63;100.00;101257.28;6272934;28;20056;-74
2022/03/29 03:53:31;;;;;;;21.58;7.72;;;;;;;5.66;100.00;101247.63;6282923;28;20493;-74
2022/03/29 03:56:34;;;;;;;19.35;7.47;;;;;;;5.64;100.00;101252.03;6298246;28;20048;-75
2022/03/29 03:59:35;;;;;;;17.50;6.78;;;;;;;5.69;100.00;101251.91;6298157;28;20056;-75
2022/03/29 04:02:36;;;;;;;15.93;6.50;;;;;;;5.70;100.00;101240.59;6297438;28;20048;-75
2022/03/29 04:05:38;;;;;;;19.67;7.72;;;;;;;5.76;100.00;101246.50;6297939;28;20053;-75
2022/03/29 04:08:39;;;;;;;21.08;6.72;;;;;;;5.81;100.00;101247.25;6297855;28;20044;-75
2022/03/29 04:11:42;;;;;;;20.50;7.88;;;;;;;5.69;100.00;101246.72;6297174;28;20064;-75
2022/03/29 04:14:43;;;;;;;13.43;6.20;;;;;;;5.68;100.00;101234.53;6297575;28;20510;-75
2022/03/29 04:17:45;;;;;;;17.58;7.10;;;;;;;5.69;100.00;101237.13;6287930;28;20037;-75
2022/03/29 04:20:46;;;;;;;21.70;7.70;;;;;;;5.71;100.00;101240.53;6271897;28;20060;-75
2022/03/29 04:23:47;;;;;;;16.63;7.60;;;;;;;5.73;100.00;101227.50;6272625;28;20417;-75
2022/03/29 04:26:51;;;;;;;16.25;6.80;;;;;;;5.73;100.00;101225.72;6272572;28;20045;-75
2022/03/29 04:29:53;;;;;;;17.50;7.07;;;;;;;5.74;100.00;101218.75;6272485;28;20053;-75
2022/03/29 04:32:54;;;;;;;15.23;6.82;;;;;;;5.75;100.00;101216.09;6271524;28;20052;-75
2022/03/29 04:35:56;;;;;;;17.45;7.93;;;;;;;5.74;100.00;101221.38;6272497;28;20053;-75
2022/03/29 04:38:58;;;;;;;18.17;7.72;;;;;;;5.77;100.00;101213.47;6272015;28;20045;-75
2022/03/29 04:42:01;;;;;;;17.80;7.15;;;;;;;5.69;100.00;101216.28;6271618;28;20051;-75
2022/03/29 04:45:02;;;;;;;16.17;6.80;;;;;;;5.72;100.00;101202.28;6272116;28;20052;-74
2022/03/29 04:48:04;;;;;;;16.52;7.07;;;;;;;5.69;100.00;101203.22;6271988;28;20064;-75
2022/03/29 04:51:06;;;;;;;17.90;7.85;;;;;;;5.66;100.00;101200.69;6271437;28;20049;-75
2022/03/29 04:54:07;;;;;;;19.95;7.38;;;;;;;5.64;100.00;101202.50;6272036;28;20056;-76
2022/03/29 04:57:10;;;;;;;17.58;7.15;;;;;;;5.63;100.00;101202.50;6272178;28;20052;-75
2022/03/29 05:00:13;;;;;;;18.08;8.27;;;;;;;5.65;100.00;101206.81;6271633;28;20059;-75
2022/03/29 05:03:15;;;;;;;19.67;8.30;;;;;;;5.68;100.00;101198.91;6271020;28;20049;-75
2022/03/29 05:06:16;;;;;;;17.08;7.45;;;;;;;5.57;100.00;101206.16;6271128;28;20466;-75
2022/03/29 05:09:18;;;;;;;24.00;9.98;;;;;;;5.56;100.00;101201.84;6271823;28;20047;-75
2022/03/29 05:12:20;;;;;;;20.88;8.10;;;;;;;5.64;100.00;101188.63;6270997;28;20049;-76
2022/03/29 05:15:22;;;;;;;20.48;7.50;;;;;;;5.72;100.00;101194.47;6271900;28;20056;-75
2022/03/29 05:18:23;;;;;;;26.63;10.07;;;;;;;5.62;100.00;101199.06;6271380;28;20523;-75
2022/03/29 05:21:25;;;;;;;26.65;9.10;;;;;;;5.58;100.00;101192.22;6270666;28;20044;-75
2022/03/29 05:24:26;;;;;;;21.95;8.40;;;;;;;5.65;100.00;101191.16;6271804;28;20053;-75
2022/03/29 05:27:29;;;;;;;22.45;8.32;;;;;;;5.65;100.00;101193.78;6271532;28;20052;-75
2022/03/29 05:30:31;;;;;;;22.17;9.23;;;;;;;5.72;100.00;101197.94;6270959;28;20145;-75
2022/03/29 05:33:32;;;;;;;24.17;10.07;;;;;;;5.73;100.00;101204.00;6271250;28;20408;-75
2022/03/29 05:36:33;;;;;;;20.85;8.65;;;;;;;5.70;100.00;101202.34;6280995;28;20060;-76
2022/03/29 05:39:35;;;;;;;28.13;9.70;;;;;;;5.72;100.00;101197.94;6285011;28;20051;-76
2022/03/29 05:42:38;;;;;;;26.02;9.07;;;;;;;5.75;100.00;101199.59;6270682;28;20045;-75
2022/03/29 05:45:40;;;;;;;20.20;8.45;;;;;;;5.78;100.00;101197.78;6273863;28;20052;-75
2022/03/29 05:48:55;;;;;;;24.90;8.77;;;;;;;5.69;100.00;101202.38;6287550;28;20499;-76
2022/03/29 05:51:57;;;;;;;36.65;8.75;;;;;;;5.74;100.00;101200.50;6300741;28;20048;-76
2022/03/29 05:54:58;;;;;;;24.58;8.40;;;;;;;5.68;100.00;101198.03;6301343;28;20048;-75
2022/03/29 05:58:01;;;;;;;18.73;8.70;;;;;;;5.66;100.00;101192.03;6300929;28;20407;-74
2022/03/29 06:01:02;;;;;;;18.73;8.48;;;;;;;5.55;100.00;101200.97;6287385;28;20055;-75
2022/03/29 06:04:07;;;;;;;16.95;7.35;;;;;;;5.60;100.00;101204.31;6292478;28;20056;-76
2022/03/29 06:07:08;;;;;;;26.77;9.32;;;;;;;5.67;100.00;101198.94;6290286;28;20040;-75
2022/03/29 06:10:11;;;;;;;32.10;10.02;;;;;;;5.56;100.00;101192.25;6296501;28;20455;-76
2022/03/29 06:13:14;;;;;;;20.27;8.43;;;;;;;5.58;100.00;101193.06;6291644;28;20412;-76
2022/03/29 06:16:15;;;;;;;19.42;7.32;;;;;;;5.68;100.00;101195.44;6300581;28;20061;-76
2022/03/29 06:19:17;;;;;;;23.65;8.15;;;;;;;5.74;100.00;101203.97;6289137;28;20415;-76
2022/03/29 06:22:19;;;;;;;22.63;8.68;;;;;;;5.76;100.00;101194.34;6271638;28;20045;-76
2022/03/29 06:25:20;;;;;;;27.55;8.55;;;;;;;5.85;100.00;101195.84;6275938;28;20099;-76
2022/03/29 06:28:23;;;;;;;23.90;9.10;;;;;;;5.85;100.00;101206.28;6273833;28;20041;-75
2022/03/29 06:31:25;;;;;;;24.67;9.88;;;;;;;5.87;100.00;101201.03;6272991;28;20049;-75
2022/03/29 06:34:26;;;;;;;23.77;9.57;;;;;;;5.90;100.00;101201.78;6274668;28;20057;-75
2022/03/29 06:37:28;;;;;;;24.13;10.40;;;;;;;5.96;100.00;101199.06;6273448;28;20416;-75
2022/03/29 06:40:30;;;;;;;28.27;9.88;;;;;;;6.00;100.00;101195.50;6272587;28;20049;-75
2022/03/29 06:43:34;;;;;;;26.73;9.30;;;;;;;6.00;100.00;101199.84;6273057;28;20049;-75
2022/03/29 06:46:36;;;;;;;23.38;9.98;;;;;;;5.94;100.00;101198.25;6271783;28;20424;-75
2022/03/29 06:49:37;;;;;;;24.40;9.75;;;;;;;6.00;100.00;101200.72;6284811;28;20052;-75
2022/03/29 06:52:40;;;;;;;30.55;11.23;;;;;;;6.00;100.00;101195.50;6284984;28;20087;-75
2022/03/29 06:55:42;;;;;;;24.50;10.15;;;;;;;5.96;100.00;101195.63;6259115;28;20116;-76
2022/03/29 06:58:44;;;;;;;19.33;9.00;;;;;;;6.04;100.00;101197.13;6249591;28;20045;-76
2022/03/29 07:01:46;;;;;;;20.65;8.20;;;;;;;6.00;100.00;101187.66;6255269;28;20052;-76
2022/03/29 07:04:47;;;;;;;22.92;8.50;;;;;;;6.01;100.00;101183.31;6272867;28;20052;-76
2022/03/29 07:07:50;;;;;;;25.55;9.30;;;;;;;6.03;100.00;101184.09;6273053;28;20052;-76
2022/03/29 07:14:25;;;;;;;21.38;8.77;;;;;;;6.06;100.00;101177.06;6220292;28;20569;-76
2022/03/29 07:17:27;;;;;;;21.27;8.27;;;;;;;6.07;100.00;101180.50;6220073;28;20050;-76
2022/03/29 07:20:29;;;;;;;29.88;8.88;;;;;;;6.18;100.00;101182.84;6268440;28;20060;-76
2022/03/29 07:23:30;;;;;;;20.65;8.15;;;;;;;6.27;100.00;101182.59;6272447;28;20056;-76
2022/03/29 07:26:31;;;;;;;24.85;7.85;;;;;;;6.35;100.00;101186.66;6272920;28;20130;-76
2022/03/29 07:29:34;;;;;;;15.63;7.00;;;;;;;6.19;100.00;101187.16;6269232;28;20041;-76
2022/03/29 07:32:43;;;;;;;19.50;7.32;;;;;;;6.10;100.00;101191.72;6282370;28;20052;-75
2022/03/29 07:35:45;;;;;;;14.93;6.77;;;;;;;6.17;100.00;101191.53;6288992;28;20048;-75
2022/03/29 07:38:46;;;;;;;18.08;7.57;;;;;;;6.17;100.00;101184.56;6282620;28;20329;-76
2022/03/29 07:41:48;;;;;;;21.13;8.70;;;;;;;6.19;100.00;101187.16;6289882;28;20056;-76
2022/03/29 07:44:51;;;;;;;20.67;8.68;;;;;;;6.24;100.00;101183.50;6298266;28;20048;-76
2022/03/29 07:47:55;;;;;;;22.77;9.05;;;;;;;6.28;100.00;101189.50;6275615;28;20424;-76
2022/03/29 07:50:57;;;;;;;27.50;8.70;;;;;;;6.16;100.00;101182.88;6277883;28;20064;-76
2022/03/29 07:53:58;;;;;;;15.88;7.70;;;;;;;6.14;100.00;101178.59;6289901;28;20052;-76
2022/03/29 07:56:59;;;;;;;20.40;8.32;;;;;;;6.17;100.00;101183.72;6278023;28;20060;-76
2022/03/29 08:00:31;;;;;;;18.92;8.05;;;;;;;6.16;100.00;101177.66;6272995;28;20049;-76
2022/03/29 08:03:32;;;;;;;17.15;7.57;;;;;;;6.19;100.00;101182.78;6273271;28;20126;-76
2022/03/29 08:06:33;;;;;;;21.13;8.85;;;;;;;6.31;100.00;101177.22;6276790;28;20048;-76
2022/03/29 08:09:35;;;;;;;16.10;7.13;;;;;;;6.42;100.00;101163.00;6272821;28;20048;-76
2022/03/29 08:12:36;;;;;;;23.23;8.73;;;;;;;6.49;100.00;101162.75;6273560;28;20060;-76
2022/03/29 08:15:40;;;;;;;21.55;9.73;;;;;;;6.45;100.00;101158.56;6272717;28;20419;-76
2022/03/29 08:18:41;;;;;;;21.40;8.60;;;;;;;6.52;100.00;101157.44;6272730;28;20493;-76
2022/03/29 08:21:52;;;;;;;27.92;10.20;;;;;;;6.53;100.00;101150.47;6271945;28;20052;-75
2022/03/29 08:24:53;;;;;;;20.05;8.55;;;;;;;6.63;100.00;101151.91;6272974;28;20130;-76
2022/03/29 08:27:56;;;;;;;24.02;10.77;;;;;;;6.65;100.00;101155.31;6272480;28;20531;-76
2022/03/29 08:30:59;;;;;;;24.00;9.60;;;;;;;6.82;100.00;101154.81;6272080;28;20048;-76
2022/03/29 08:34:00;;;;;;;28.83;8.35;;;;;;;6.82;100.00;101149.59;6273349;28;20045;-77
2022/03/29 08:37:02;;;;;;;19.50;7.75;;;;;;;6.75;100.00;101156.75;6272943;28;20045;-76
2022/03/29 08:40:04;;;;;;;25.50;8.88;;;;;;;6.85;100.00;101142.50;6271414;28;20045;-76
2022/03/29 08:43:08;;;;;;;24.17;8.98;;;;;;;6.81;100.00;101140.03;6271403;28;20488;-76
2022/03/29 08:46:11;;;;;;;24.85;9.00;;;;;;;6.86;100.00;101143.38;6272335;28;20045;-76
2022/03/29 08:49:15;;;;;;;21.75;8.27;;;;;;;7.03;100.00;101142.81;6271849;28;20080;-76
2022/03/29 08:52:20;;;;;;;19.23;8.75;;;;;;;7.15;100.00;101138.97;6271601;28;20049;-75
2022/03/29 08:55:22;;;;;;;17.60;7.32;;;;;;;7.16;100.00;101140.66;6271960;28;20132;-75
2022/03/29 08:58:24;;;;;;;16.42;7.50;;;;;;;7.13;100.00;101133.78;6272417;28;20488;-75
2022/03/29 09:01:27;;;;;;;15.93;7.65;;;;;;;7.10;100.00;101134.72;6271697;28;20056;-76
2022/03/29 09:04:29;;;;;;;14.63;6.95;;;;;;;7.00;100.00;101128.09;6271834;28;20512;-75
2022/03/29 09:07:47;;;;;;;18.38;8.00;;;;;;;6.95;100.00;101131.75;6271799;28;20044;-76
2022/03/29 09:10:51;;;;;;;18.73;7.63;;;;;;;6.99;100.00;101135.97;6271186;28;20225;-76
2022/03/29 09:14:02;;;;;;;23.08;7.78;;;;;;;7.07;100.00;101133.97;6271709;28;20048;-75
2022/03/29 09:17:25;;;;;;;21.70;7.95;;;;;;;7.03;100.00;101128.00;6271702;28;20049;-76
2022/03/29 09:20:26;;;;;;;22.02;7.57;;;;;;;7.26;100.00;101122.00;6245727;28;20056;-76
2022/03/29 09:23:27;;;;;;;20.05;8.15;;;;;;;7.40;100.00;101118.06;6246850;28;20060;-76
2022/03/29 09:26:30;;;;;;;18.70;6.93;;;;;;;7.38;100.00;101113.75;6246912;28;20049;-76
2022/03/29 09:29:32;;;;;;;19.52;6.88;;;;;;;7.46;100.00;101112.66;6246750;28;20049;-75
2022/03/29 09:32:35;;;;;;;21.35;8.90;;;;;;;7.69;100.00;101112.69;6259982;28;20045;-76
2022/03/29 09:35:52;;;;;;;20.58;8.43;;;;;;;7.76;100.00;101118.53;6271447;28;20053;-76
2022/03/29 09:38:56;;;;;;;19.73;8.25;;;;;;;7.64;100.00;101122.47;6270998;28;20045;-76
2022/03/29 09:42:00;;;;;;;21.98;8.45;;;;;;;7.38;100.00;101118.97;6270839;28;20052;-76
2022/03/29 09:45:01;;;;;;;16.65;8.13;;;;;;;7.58;100.00;101115.66;6271330;28;20055;-75
2022/03/29 09:48:26;;;;;;;18.67;7.82;;;;;;;7.49;100.00;101117.75;6274461;28;20052;-76
2022/03/29 09:51:28;;;;;;;24.10;8.93;;;;;;;7.36;100.00;101112.97;6277089;28;20056;-76
2022/03/29 09:54:30;;;;;;;26.55;8.30;;;;;;;7.49;100.00;101115.13;6288219;28;20059;-76
2022/03/29 09:57:35;;;;;;;23.23;8.75;;;;;;;7.71;100.00;101108.25;6295948;28;20424;-76
2022/03/29 10:00:38;;;;;;;24.20;8.60;;;;;;;7.85;100.00;101105.97;6290697;28;20044;-76
2022/03/29 10:03:42;;;;;;;20.92;8.10;;;;;;;8.06;100.00;101106.13;6271096;28;20045;-76
2022/03/29 10:06:44;;;;;;;16.10;7.13;;;;;;;8.10;100.00;101099.88;6271112;28;20041;-76
2022/03/29 10:09:46;;;;;;;21.30;7.63;;;;;;;8.02;100.00;101099.28;6271421;28;20049;-76
2022/03/29 10:12:48;;;;;;;18.13;7.35;;;;;;;7.91;100.00;101097.06;6270674;28;20053;-76
2022/03/29 10:15:50;;;;;;;16.42;7.05;;;;;;;7.90;100.00;101095.34;6271416;28;20060;-76
2022/03/29 10:18:55;;;;;;;18.27;8.35;;;;;;;7.95;100.00;101095.19;6280060;28;20051;-76
2022/03/29 10:21:58;;;;;;;15.90;7.30;;;;;;;8.07;100.00;101090.34;6295455;28;20049;-76
2022/03/29 10:25:00;;;;;;;19.30;7.65;;;;;;;8.22;96.58;101093.28;6296168;28;20052;-76
2022/03/29 10:28:04;;;;;;;17.40;7.68;;;;;;;8.29;98.96;101084.31;6290051;28;20044;-76
2022/03/29 10:31:27;;;;;;;13.20;6.20;;;;;;;8.28;99.28;101088.69;6286925;28;20052;-76
2022/03/29 10:34:31;;;;;;;22.33;6.95;;;;;;;8.23;99.76;101089.78;6294959;28;20056;-76
2022/03/29 10:37:51;;;;;;;20.02;6.80;;;;;;;8.31;100.00;101077.22;6281731;28;20056;-76
2022/03/29 10:40:53;;;;;;;28.15;8.18;;;;;;;8.31;99.08;101079.84;6281442;28;20480;-76
2022/03/29 10:43:55;;;;;;;15.75;7.00;;;;;;;8.46;100.00;101075.84;6283134;28;20048;-76
2022/03/29 10:46:56;;;;;;;10.68;6.60;;;;;;;8.55;98.42;101070.22;6279986;28;20044;-75
2022/03/29 10:50:00;;;;;;;13.75;6.22;;;;;;;8.55;97.91;101072.84;6290961;28;20055;-76
2022/03/29 10:53:27;;;;;;;18.70;5.95;;;;;;;8.55;97.63;101070.22;6299554;28;20045;-76
2022/03/29 10:56:30;;;;;;;18.83;6.72;;;;;;;8.60;97.42;101061.28;6270279;28;20128;-76
2022/03/29 10:59:32;;;;;;;16.73;6.22;;;;;;;8.72;95.55;101049.47;6274513;28;20045;-75
2022/03/29 11:02:34;;;;;;;19.55;7.28;;;;;;;8.59;93.06;101053.47;6273965;28;20616;-76
2022/03/29 11:06:04;;;;;;;21.10;6.47;;;;;;;8.79;93.58;101048.28;6274671;28;20052;-76
2022/03/29 11:09:09;;;;;;;18.55;6.97;;;;;;;8.95;94.17;101042.38;6274744;28;20087;-76
2022/03/29 11:12:45;;;;;;;12.55;6.15;;;;;;;8.77;94.56;101047.50;6285541;28;20528;-75
2022/03/29 11:15:48;;;;;;;12.63;6.45;;;;;;;8.60;96.36;101042.94;6271607;28;20500;-76
2022/03/29 11:18:50;;;;;;;16.42;6.80;;;;;;;8.71;95.69;101044.25;6284269;28;20043;-75
2022/03/29 11:21:51;;;;;;;15.18;5.90;;;;;;;8.74;91.76;101033.66;6289670;28;20044;-75
2022/03/29 11:24:56;;;;;;;18.75;6.30;;;;;;;9.18;89.66;101029.19;6291025;28;20052;-76
2022/03/29 11:28:06;;;;;;;17.42;6.20;;;;;;;9.72;89.91;101022.41;6298659;28;20052;-76
2022/03/29 11:31:07;;;;;;;17.40;6.82;;;;;;;9.75;86.52;101024.88;6272015;28;20122;-75
2022/03/29 11:34:11;;;;;;;19.52;5.72;;;;;;;9.32;88.67;101024.19;6281302;28;20056;-76
2022/03/29 11:37:27;;;;;;;16.45;6.25;;;;;;;9.56;88.07;101024.03;6287655;28;20097;-75
2022/03/29 11:40:31;;;;;;;18.73;6.47;;;;;;;9.75;87.18;101014.38;6276211;28;20044;-75
2022/03/29 11:43:33;;;;;;;18.70;5.68;;;;;;;10.26;87.34;101015.53;6277159;28;20416;-75
2022/03/29 11:46:49;;;;;;;14.77;5.43;;;;;;;10.51;82.01;101004.69;6275319;28;20179;-75
2022/03/29 11:49:50;;;;;;;14.32;5.68;;;;;;;10.22;81.37;101006.09;6288558;28;20162;-76
2022/03/29 11:52:52;;;;;;;10.98;5.82;;;;;;;9.97;85.42;101002.91;6293832;28;20048;-76
2022/03/29 11:56:00;;;;;;;17.50;6.85;;;;;;;9.83;83.02;101004.41;6269953;28;20048;-76
2022/03/29 11:59:01;;;;;;;12.40;5.85;;;;;;;10.11;85.60;100995.22;6268714;28;20044;-75
2022/03/29 12:02:06;;;;;;;12.60;5.63;;;;;;;9.67;86.01;100990.25;6283347;28;20055;-75
2022/03/29 12:05:09;;;;;;;18.98;5.60;;;;;;;9.98;86.43;100984.44;6287542;28;20496;-76
2022/03/29 12:08:10;;;;;;;19.95;7.97;;;;;;;10.46;82.90;100979.59;6297952;28;20053;-76
2022/03/29 12:11:13;;;;;;;19.80;6.15;;;;;;;10.64;82.96;100983.94;6288381;28;20048;-76
2022/03/29 12:14:20;;;;;;;11.90;5.05;;;;;;;10.65;82.26;100983.84;6289657;28;20488;-77
2022/03/29 12:17:21;;;;;;;14.75;6.07;;;;;;;10.40;84.63;100962.31;6250022;28;20080;-76
2022/03/29 12:20:35;;;;;;;12.90;5.43;;;;;;;9.90;85.16;100963.81;6288619;28;20067;-74
2022/03/29 12:23:36;;;;;;;11.82;4.88;;;;;;;9.97;84.63;100961.75;6297625;28;20056;-74
2022/03/29 12:26:42;;;;;;;13.90;5.65;;;;;;;10.43;80.53;100956.94;6297754;28;20082;-74
2022/03/29 12:29:46;;;;;;;11.30;4.45;;;;;;;10.64;77.70;100955.88;6297216;28;20044;-76
2022/03/29 12:32:48;;;;;;;12.45;5.53;;;;;;;11.11;78.32;100944.69;6297084;28;20122;-74
2022/03/29 12:36:02;;;;;;;9.70;4.35;;;;;;;11.04;76.77;100947.72;6297649;28;20055;-75
2022/03/29 12:39:05;;;;;;;11.13;4.35;;;;;;;10.50;80.38;100939.09;6274239;28;20049;-76
2022/03/29 12:42:11;;;;;;;10.90;4.75;;;;;;;10.56;80.87;100936.16;6279212;28;20045;-76
2022/03/29 12:45:12;;;;;;;12.65;4.72;;;;;;;10.37;79.89;100929.19;6287802;28;20048;-77
2022/03/29 12:48:14;;;;;;;11.82;5.10;;;;;;;10.72;78.37;100928.31;6288635;28;20415;-77
2022/03/29 12:51:16;;;;;;;12.20;4.18;;;;;;;10.58;75.53;100919.41;6275586;28;20045;-76
2022/03/29 12:54:17;;;;;;;11.20;4.45;;;;;;;10.75;75.14;100912.41;6279533;28;20492;-76
2022/03/29 12:57:21;;;;;;;16.95;4.50;;;;;;;10.64;76.64;100910.34;6272066;28;20049;-76
2022/03/29 13:00:22;;;;;;;10.02;3.72;;;;;;;10.57;75.65;100907.16;6271496;28;20049;-74
2022/03/29 13:03:24;;;;;;;6.80;3.30;;;;;;;10.43;75.87;100890.41;6272452;28;20053;-74
2022/03/29 13:06:25;;;;;;;11.38;4.15;;;;;;;10.92;75.84;100894.84;6288357;28;20044;-74
2022/03/29 13:09:26;;;;;;;10.70;4.57;;;;;;;11.27;72.18;100886.88;6289079;28;20048;-74
2022/03/29 13:12:30;;;;;;;11.77;4.95;;;;;;;11.85;71.20;100882.81;6287636;28;20048;-74
2022/03/29 13:15:35;;;;;;;10.43;3.88;;;;;;;11.06;72.56;100885.38;6296394;28;20048;-74
2022/03/29 13:18:39;;;;;;;17.13;4.40;;;;;;;10.72;76.58;100878.38;6271697;28;20098;-73
2022/03/29 13:21:43;;;;;;;12.95;4.28;;;;;;;10.97;73.78;100885.84;6270727;28;20045;-74
2022/03/29 13:24:45;;;;;;;9.38;3.40;;;;;;;10.99;74.60;100878.72;6271597;28;20056;-74
2022/03/29 13:27:48;;;;;;;11.70;4.30;;;;;;;11.33;74.02;100873.38;6271769;28;20089;-74
2022/03/29 13:30:49;;;;;;;13.55;3.72;;;;;;;11.06;73.79;100870.44;6270794;28;20485;-74
2022/03/29 13:33:52;;;;;;;15.00;4.45;;;;;;;10.94;74.05;100863.19;6271548;28;20049;-74
2022/03/29 13:36:55;;;;;;;9.32;4.05;;;;;;;11.01;74.85;100866.34;6276417;28;20044;-75
2022/03/29 13:39:56;;;;;;;10.13;3.65;;;;;;;11.12;73.74;100851.69;6296081;28;20428;-74
2022/03/29 13:42:59;;;;;;;9.43;3.40;;;;;;;11.35;73.87;100849.59;6295638;28;20052;-73
2022/03/29 13:46:00;;;;;;;14.02;3.47;;;;;;;11.42;72.63;100850.97;6277857;28;20385;-75
2022/03/29 13:49:04;;;;;;;12.52;4.03;;;;;;;10.93;73.91;100850.97;6271181;28;20053;-75
2022/03/29 13:52:06;;;;;;;9.57;3.13;;;;;;;11.16;74.78;100847.13;6270858;28;20056;-75
2022/03/29 13:55:08;;;;;;;8.85;4.13;;;;;;;10.73;74.26;100841.53;6271086;28;20048;-75
2022/03/29 13:58:11;;;;;;;7.57;3.78;;;;;;;10.53;73.88;100825.94;6271682;28;20401;-74
2022/03/29 14:01:12;;;;;;;9.60;3.95;;;;;;;10.19;75.98;100819.75;6265420;28;20046;-74
2022/03/29 14:04:14;;;;;;;8.27;3.38;;;;;;;10.30;77.56;100824.50;6246536;28;20048;-74
2022/03/29 14:07:15;;;;;;;10.05;3.92;;;;;;;10.61;76.77;100816.72;6251615;28;20056;-75